Terminal Aerodrome Forecast
Issued by NWS

Home | Current Version | Previous Version | Text Only | Print | Product List | Glossary On
Versions: 1 2 3 4 5 6 7 8 9 10 11 12 13 14 15 16 17 18 19 20 21 22 23 24 25 26 27 28 29 30 31 32 33 34 35 36 37 38
000
FTUS42 KJAX 301900 AAA
TAFCRG
TAF AMD
KCRG 301900Z 3019/0118 27005KT P6SM VCTS FEW030CB SCT060 BKN100
      TEMPO 3019/3023 VRB25G40KT 3SM TSRA BKN035CB
     FM302300 24012KT P6SM VCTS BKN040CB
     FM010200 21006KT P6SM SCT040 BKN100
     FM010400 VRB03KT P6SM BKN250=

USA.gov is the U.S. government's official web portal to all federal, state and local government web resources and services.